createdAt,value
2022-07-28T00:00:01.067Z,41.63
2022-07-28T00:03:02.681Z,41.43
2022-07-28T00:06:04.273Z,41.56
2022-07-28T00:09:05.683Z,41.17
2022-07-28T00:12:07.548Z,41.28
2022-07-28T00:15:09.581Z,41.21
2022-07-28T00:18:11.127Z,41.15
2022-07-28T00:21:13.083Z,41.28
2022-07-28T00:24:15.005Z,41.09
2022-07-28T00:27:19.289Z,41.41
2022-07-28T00:30:21.017Z,41.59
2022-07-28T00:33:22.805Z,41.61
2022-07-28T00:36:25.643Z,41.48
2022-07-28T00:39:27.453Z,41.58
2022-07-28T00:42:28.868Z,41.75
2022-07-28T00:45:30.283Z,41.75
2022-07-28T00:48:32.062Z,42.01
2022-07-28T00:51:33.658Z,41.87
2022-07-28T00:54:36.034Z,41.63
2022-07-28T00:57:37.517Z,41.84
2022-07-28T01:00:38.944Z,42.46
2022-07-28T01:03:43.128Z,42.03
2022-07-28T01:07:06.491Z,42.13
2022-07-28T01:10:28.596Z,42.02
2022-07-28T01:13:47.514Z,42.38
2022-07-28T01:17:13.834Z,42.62
2022-07-28T01:20:18.532Z,42.53
2022-07-28T01:23:32.066Z,42.91
2022-07-28T01:27:00.010Z,42.74
2022-07-28T01:30:10.873Z,42.93
2022-07-28T01:33:18.564Z,43.20
2022-07-28T01:36:25.308Z,43.15
2022-07-28T01:39:32.153Z,43.05
2022-07-28T01:42:39.053Z,43.01
2022-07-28T01:45:43.173Z,43.01
2022-07-28T01:48:46.938Z,43.25
2022-07-28T01:51:51.227Z,43.28
2022-07-28T01:54:54.962Z,43.38
2022-07-28T01:57:57.611Z,43.14
2022-07-28T02:01:00.421Z,43.41
2022-07-28T02:04:04.450Z,43.36
2022-07-28T02:07:09.849Z,44.02
2022-07-28T02:10:16.829Z,43.43
2022-07-28T02:13:18.352Z,43.99
2022-07-28T02:16:23.160Z,44.28
2022-07-28T02:19:27.731Z,43.97
2022-07-28T02:22:30.739Z,43.84
2022-07-28T02:25:33.222Z,44.10
2022-07-28T02:28:34.909Z,43.98
2022-07-28T02:31:50.417Z,44.05
2022-07-28T02:34:52.939Z,44.34
2022-07-28T02:38:00.625Z,44.49
2022-07-28T02:41:17.425Z,45.38
2022-07-28T02:44:23.292Z,45.25
2022-07-28T02:47:27.972Z,46.06
2022-07-28T02:50:29.661Z,46.09
2022-07-28T02:53:31.552Z,45.85
2022-07-28T02:56:34.277Z,45.63
2022-07-28T02:59:36.621Z,45.68
2022-07-28T03:02:39.518Z,45.79
2022-07-28T03:05:41.662Z,46.23
2022-07-28T03:08:43.534Z,46.80
2022-07-28T03:11:54.673Z,46.78
2022-07-28T03:14:56.106Z,47.64
2022-07-28T03:17:57.722Z,48.03
2022-07-28T03:20:59.295Z,46.96
2022-07-28T03:24:00.767Z,47.26
2022-07-28T03:27:08.244Z,47.58
2022-07-28T03:30:14.123Z,47.54
2022-07-28T03:33:15.634Z,47.59
2022-07-28T03:36:24.301Z,47.74
2022-07-28T03:39:27.616Z,48.39
2022-07-28T03:42:35.342Z,48.73
2022-07-28T03:45:40.846Z,48.66
2022-07-28T03:48:42.557Z,48.87
2022-07-28T03:51:44.005Z,49.21
2022-07-28T03:54:45.599Z,48.86
2022-07-28T03:57:47.635Z,48.49
2022-07-28T04:00:49.679Z,48.41
2022-07-28T04:03:51.161Z,48.22
2022-07-28T04:06:52.582Z,48.38
2022-07-28T04:09:54.034Z,48.92
2022-07-28T04:12:57.401Z,49.16
2022-07-28T04:15:59.931Z,49.10
2022-07-28T04:19:01.652Z,49.16
2022-07-28T04:22:03.120Z,49.43
2022-07-28T04:25:05.625Z,49.24
2022-07-28T04:28:07.149Z,48.72
2022-07-28T04:31:08.747Z,49.27
2022-07-28T04:34:10.288Z,49.81
2022-07-28T04:37:12.642Z,49.57
2022-07-28T04:40:15.154Z,49.82
2022-07-28T04:43:16.681Z,49.74
2022-07-28T04:46:18.243Z,49.47
2022-07-28T04:49:19.793Z,49.17
2022-07-28T04:52:21.983Z,49.63
2022-07-28T04:55:24.745Z,49.77
2022-07-28T04:58:27.442Z,49.28
2022-07-28T05:01:32.470Z,49.39
2022-07-28T05:04:34.203Z,49.51
2022-07-28T05:07:40.958Z,49.92
2022-07-28T05:10:42.377Z,49.22
2022-07-28T05:13:44.497Z,49.41
2022-07-28T05:16:46.065Z,49.68
2022-07-28T05:19:47.593Z,50.36
2022-07-28T05:22:53.605Z,49.05
2022-07-28T05:25:55.125Z,49.50
2022-07-28T05:28:57.200Z,49.00
2022-07-28T05:31:58.670Z,49.00
2022-07-28T05:35:00.108Z,50.21
2022-07-28T05:38:01.673Z,49.94
2022-07-28T05:41:03.113Z,49.70
2022-07-28T05:44:04.633Z,49.78
2022-07-28T05:47:06.360Z,49.60
2022-07-28T05:50:08.148Z,48.94
2022-07-28T05:53:09.593Z,48.22
2022-07-28T05:56:11.043Z,48.38
2022-07-28T05:59:14.805Z,48.38
2022-07-28T06:02:16.659Z,48.50
2022-07-28T06:05:20.655Z,48.53
2022-07-28T06:08:24.985Z,47.98
2022-07-28T06:11:26.456Z,48.50
2022-07-28T06:14:27.876Z,49.38
2022-07-28T06:17:29.291Z,49.09
2022-07-28T06:20:30.733Z,49.14
2022-07-28T06:23:32.173Z,49.36
2022-07-28T06:26:34.493Z,49.38
2022-07-28T06:29:35.980Z,49.16
2022-07-28T06:32:37.521Z,49.33
2022-07-28T06:35:46.642Z,49.57
2022-07-28T06:38:52.645Z,49.79
2022-07-28T06:41:54.075Z,50.56
2022-07-28T06:44:59.215Z,50.16
2022-07-28T06:48:01.198Z,50.00
2022-07-28T06:51:02.809Z,50.49
2022-07-28T06:54:11.105Z,50.75
2022-07-28T06:57:13.734Z,50.63
2022-07-28T07:00:15.984Z,50.67
2022-07-28T07:03:17.574Z,50.12
2022-07-28T07:06:19.088Z,49.61
2022-07-28T07:09:20.633Z,49.68
2022-07-28T07:12:22.201Z,49.15
2022-07-28T07:15:23.749Z,49.07
2022-07-28T07:18:25.203Z,48.30
2022-07-28T07:21:26.657Z,47.76
2022-07-28T07:24:28.321Z,47.52
2022-07-28T07:27:29.792Z,47.41
2022-07-28T07:30:31.345Z,47.32
2022-07-28T07:33:32.845Z,46.96
2022-07-28T07:36:34.271Z,46.49
2022-07-28T07:39:35.690Z,47.07
2022-07-28T07:42:38.501Z,47.59
2022-07-28T07:45:41.186Z,47.55
2022-07-28T07:48:43.005Z,47.46
2022-07-28T07:51:44.550Z,47.05
2022-07-28T07:54:46.095Z,46.62
2022-07-28T07:57:47.552Z,46.40
2022-07-28T08:00:48.966Z,46.38
2022-07-28T08:03:50.674Z,45.96
2022-07-28T08:06:53.342Z,46.62
2022-07-28T08:09:54.838Z,46.23
2022-07-28T08:12:56.398Z,46.80
2022-07-28T08:15:59.545Z,46.68
2022-07-28T08:19:01.126Z,46.24
2022-07-28T08:22:02.631Z,46.66
2022-07-28T08:25:04.250Z,46.13
2022-07-28T08:28:05.678Z,45.40
2022-07-28T08:31:07.222Z,45.17
2022-07-28T08:34:26.502Z,44.40
2022-07-28T08:37:30.147Z,44.47
2022-07-28T08:40:32.779Z,44.88
2022-07-28T08:43:38.220Z,44.41
2022-07-28T08:46:41.184Z,44.63
2022-07-28T08:49:43.520Z,44.56
2022-07-28T08:52:47.986Z,44.22
2022-07-28T08:55:50.795Z,44.06
2022-07-28T08:58:52.651Z,44.10
2022-07-28T09:01:57.604Z,43.66
2022-07-28T09:04:59.712Z,44.59
2022-07-28T09:08:02.557Z,44.52
2022-07-28T09:11:06.138Z,44.77
2022-07-28T09:14:07.644Z,44.31
2022-07-28T09:17:09.608Z,44.18
2022-07-28T09:20:12.206Z,43.81
2022-07-28T09:23:41.798Z,43.58
2022-07-28T09:26:35.793Z,43.16
2022-07-28T09:29:38.946Z,42.67
2022-07-28T09:32:40.486Z,42.55
2022-07-28T09:35:44.329Z,42.03
2022-07-28T09:38:46.516Z,41.54
2022-07-28T09:41:57.071Z,41.50
2022-07-28T09:45:25.051Z,41.93
2022-07-28T09:48:27.055Z,42.18
2022-07-28T09:51:30.690Z,41.12
2022-07-28T09:54:35.159Z,41.11
2022-07-28T09:57:43.258Z,40.70
2022-07-28T10:00:47.509Z,41.17
2022-07-28T10:03:55.882Z,40.83
2022-07-28T10:07:05.407Z,39.31
2022-07-28T10:10:08.596Z,38.94
2022-07-28T10:13:10.087Z,38.49
2022-07-28T10:16:11.635Z,38.76
2022-07-28T10:19:13.143Z,38.63
2022-07-28T10:22:17.921Z,38.43
2022-07-28T10:25:21.666Z,38.13
2022-07-28T10:28:23.890Z,38.23
2022-07-28T10:31:35.369Z,37.23
2022-07-28T10:34:54.059Z,36.43
2022-07-28T10:38:00.239Z,35.62
2022-07-28T10:41:03.997Z,35.87
2022-07-28T10:44:05.962Z,37.09
2022-07-28T10:47:18.548Z,36.79
2022-07-28T10:50:22.637Z,35.83
2022-07-28T10:53:37.185Z,35.40
2022-07-28T10:56:57.159Z,35.30
2022-07-28T11:00:26.494Z,35.64
2022-07-28T11:03:44.222Z,35.52
2022-07-28T11:06:47.908Z,35.53
2022-07-28T11:09:50.044Z,35.85
2022-07-28T11:12:54.296Z,35.89
2022-07-28T11:16:17.244Z,35.77
2022-07-28T11:19:42.435Z,36.13
2022-07-28T11:22:40.286Z,35.76
2022-07-28T11:25:42.215Z,35.29
2022-07-28T11:29:03.906Z,35.03
2022-07-28T11:32:05.688Z,35.29
2022-07-28T11:35:08.854Z,35.54
2022-07-28T11:38:12.512Z,35.15
2022-07-28T11:41:37.464Z,34.80
2022-07-28T11:44:40.772Z,34.57
2022-07-28T11:47:43.674Z,34.41
2022-07-28T11:51:05.096Z,34.17
2022-07-28T11:54:16.493Z,34.47
2022-07-28T11:57:19.514Z,34.16
2022-07-28T12:00:22.378Z,34.63
2022-07-28T12:03:49.234Z,34.55
2022-07-28T12:06:52.290Z,34.66
2022-07-28T12:09:53.713Z,34.51
2022-07-28T12:12:57.630Z,34.10
2022-07-28T12:15:59.149Z,33.90
2022-07-28T12:19:01.824Z,33.43
2022-07-28T12:22:15.742Z,33.87
2022-07-28T12:25:17.427Z,33.84
2022-07-28T12:28:24.183Z,34.19
2022-07-28T12:31:30.021Z,33.64
2022-07-28T12:34:37.643Z,33.66
2022-07-28T12:37:39.545Z,32.91
2022-07-28T12:40:42.070Z,33.58
2022-07-28T12:43:54.238Z,33.24
2022-07-28T12:46:55.686Z,33.08
2022-07-28T12:50:18.961Z,32.57
2022-07-28T12:53:22.724Z,32.52
2022-07-28T12:56:24.886Z,32.84
2022-07-28T12:59:32.417Z,32.77
2022-07-28T13:02:38.018Z,33.01
2022-07-28T13:05:58.322Z,33.73
2022-07-28T13:08:59.746Z,33.84
2022-07-28T13:12:02.721Z,33.41
2022-07-28T13:15:14.260Z,33.53
2022-07-28T13:18:15.716Z,33.01
2022-07-28T13:21:41.157Z,33.20
2022-07-28T13:25:02.248Z,33.07
2022-07-28T13:28:03.802Z,32.89
2022-07-28T13:31:05.271Z,32.66
2022-07-28T13:34:09.186Z,33.14
2022-07-28T13:37:11.573Z,33.51
2022-07-28T13:40:13.040Z,33.17
2022-07-28T13:43:14.542Z,33.90
2022-07-28T13:46:16.950Z,33.71
2022-07-28T13:49:21.470Z,33.21
2022-07-28T13:52:33.191Z,33.31
2022-07-28T13:55:36.882Z,33.63
2022-07-28T13:58:38.434Z,33.79
2022-07-28T14:01:43.214Z,33.93
2022-07-28T14:04:46.048Z,34.00
2022-07-28T14:07:51.907Z,34.22
2022-07-28T14:10:56.268Z,33.86
2022-07-28T14:13:57.746Z,34.01
2022-07-28T14:17:00.140Z,33.60
2022-07-28T14:20:01.809Z,33.53
2022-07-28T14:23:03.386Z,33.63
2022-07-28T14:26:33.264Z,33.71
2022-07-28T14:29:27.658Z,33.13
2022-07-28T14:32:29.166Z,33.21
2022-07-28T14:35:30.595Z,33.07
2022-07-28T14:41:54.517Z,33.21
2022-07-28T14:44:59.334Z,32.60
2022-07-28T14:48:00.855Z,32.74
2022-07-28T14:51:02.289Z,32.53
2022-07-28T14:54:03.872Z,32.40
2022-07-28T14:57:05.310Z,32.29
2022-07-28T15:00:12.251Z,32.27
2022-07-28T15:03:13.735Z,31.90
2022-07-28T15:06:15.208Z,31.35
2022-07-28T15:09:16.640Z,31.27
2022-07-28T15:12:18.082Z,31.02
2022-07-28T15:15:26.238Z,31.38
2022-07-28T15:18:27.706Z,31.44
2022-07-28T15:21:34.349Z,31.39
2022-07-28T15:24:37.740Z,31.49
2022-07-28T15:27:44.418Z,31.67
2022-07-28T15:30:51.851Z,31.85
2022-07-28T15:33:57.955Z,31.12
2022-07-28T15:37:00.896Z,31.72
2022-07-28T15:40:02.312Z,32.02
2022-07-28T15:43:04.318Z,31.87
2022-07-28T15:46:09.333Z,32.42
2022-07-28T15:49:12.265Z,31.91
2022-07-28T15:52:14.513Z,31.71
2022-07-28T15:55:15.924Z,31.78
2022-07-28T15:58:17.380Z,31.58
2022-07-28T16:01:19.416Z,31.90
2022-07-28T16:04:20.857Z,31.35
2022-07-28T16:07:23.650Z,31.40
2022-07-28T16:10:26.250Z,31.98
2022-07-28T16:13:32.138Z,32.38
2022-07-28T16:16:38.808Z,32.28
2022-07-28T16:19:49.508Z,32.20
2022-07-28T16:22:52.217Z,32.61
2022-07-28T16:25:53.795Z,32.87
2022-07-28T16:28:55.729Z,32.33
2022-07-28T16:31:57.146Z,32.58
2022-07-28T16:34:58.549Z,33.01
2022-07-28T16:38:01.556Z,32.37
2022-07-28T16:41:03.554Z,32.19
2022-07-28T16:44:06.147Z,32.13
2022-07-28T16:47:07.599Z,32.18
2022-07-28T16:50:09.555Z,32.08
2022-07-28T16:53:12.173Z,32.33
2022-07-28T16:56:17.475Z,32.13
2022-07-28T16:59:18.913Z,32.08
2022-07-28T17:02:20.322Z,32.09
2022-07-28T17:05:21.810Z,32.02
2022-07-28T17:08:23.532Z,31.78
2022-07-28T17:11:24.965Z,31.80
2022-07-28T17:14:26.375Z,32.14
2022-07-28T17:17:28.269Z,32.09
2022-07-28T17:20:29.718Z,32.38
2022-07-28T17:23:31.373Z,32.53
2022-07-28T17:29:58.088Z,32.49
2022-07-28T17:33:06.066Z,32.40
2022-07-28T17:36:09.754Z,32.05
2022-07-28T17:39:12.610Z,32.41
2022-07-28T17:42:14.041Z,32.25
2022-07-28T17:45:16.210Z,32.31
2022-07-28T17:48:18.629Z,32.81
2022-07-28T17:51:20.133Z,33.14
2022-07-28T17:54:24.884Z,32.94
2022-07-28T17:57:27.621Z,33.38
2022-07-28T18:00:31.882Z,33.23
2022-07-28T18:03:59.226Z,32.98
2022-07-28T18:06:54.837Z,33.26
2022-07-28T18:09:56.285Z,33.62
2022-07-28T18:12:57.702Z,33.36
2022-07-28T18:15:59.132Z,33.42
2022-07-28T18:19:00.637Z,33.49
2022-07-28T18:22:02.086Z,33.49
2022-07-28T18:25:03.772Z,33.30
2022-07-28T18:28:07.645Z,33.89
2022-07-28T18:31:09.109Z,33.80
2022-07-28T18:34:10.586Z,33.90
2022-07-28T18:37:15.075Z,34.13
2022-07-28T18:40:18.045Z,33.92
2022-07-28T18:43:19.511Z,34.17
2022-07-28T18:46:21.038Z,34.29
2022-07-28T18:49:26.898Z,34.09
2022-07-28T18:52:28.661Z,34.36
2022-07-28T18:55:30.114Z,34.05
2022-07-28T18:58:31.610Z,34.56
2022-07-28T19:01:33.099Z,34.74
2022-07-28T19:04:34.536Z,34.77
2022-07-28T19:07:36.354Z,34.48
2022-07-28T19:10:37.901Z,34.57
2022-07-28T19:13:39.387Z,34.71
2022-07-28T19:16:40.815Z,34.70
2022-07-28T19:19:42.528Z,34.57
2022-07-28T19:22:43.929Z,34.93
2022-07-28T19:25:45.850Z,35.06
2022-07-28T19:28:47.385Z,35.38
2022-07-28T19:31:48.861Z,35.44
2022-07-28T19:34:50.320Z,35.52
2022-07-28T19:37:52.662Z,35.51
2022-07-28T19:40:55.425Z,35.72
2022-07-28T19:43:57.697Z,35.66
2022-07-28T19:47:00.367Z,35.83
2022-07-28T19:50:01.789Z,35.78
2022-07-28T19:53:03.819Z,35.88
2022-07-28T19:56:08.787Z,35.92
2022-07-28T19:59:10.720Z,35.50
2022-07-28T20:02:12.306Z,35.99
2022-07-28T20:05:13.802Z,35.81
2022-07-28T20:08:15.293Z,35.28
2022-07-28T20:11:16.957Z,35.56
2022-07-28T20:14:18.821Z,35.84
2022-07-28T20:17:37.569Z,35.75
2022-07-28T20:20:39.790Z,36.31
2022-07-28T20:23:42.210Z,36.48
2022-07-28T20:26:45.707Z,36.65
2022-07-28T20:29:47.128Z,36.21
2022-07-28T20:32:48.674Z,36.26
2022-07-28T20:35:50.468Z,36.83
2022-07-28T20:38:56.125Z,36.54
2022-07-28T20:41:57.578Z,36.52
2022-07-28T20:44:59.134Z,36.92
2022-07-28T20:48:00.851Z,36.82
2022-07-28T20:51:02.918Z,37.66
2022-07-28T20:54:04.871Z,37.07
2022-07-28T20:57:06.623Z,37.43
2022-07-28T21:00:08.911Z,37.60
2022-07-28T21:03:10.512Z,38.27
2022-07-28T21:06:12.406Z,37.44
2022-07-28T21:09:16.686Z,37.49
2022-07-28T21:12:18.114Z,37.48
2022-07-28T21:15:20.731Z,37.67
2022-07-28T21:18:22.163Z,37.64
2022-07-28T21:21:23.909Z,37.18
2022-07-28T21:24:25.315Z,37.81
2022-07-28T21:27:27.288Z,37.49
2022-07-28T21:30:28.919Z,37.66
2022-07-28T21:33:30.480Z,37.75
2022-07-28T21:36:32.021Z,37.95
2022-07-28T21:39:34.259Z,37.93
2022-07-28T21:42:35.682Z,38.05
2022-07-28T21:45:37.143Z,37.45
2022-07-28T21:48:38.761Z,36.96
2022-07-28T21:51:46.509Z,36.72
2022-07-28T21:54:48.617Z,37.02
2022-07-28T21:57:50.086Z,37.86
2022-07-28T22:00:51.642Z,38.11
2022-07-28T22:03:53.160Z,38.90
2022-07-28T22:06:54.815Z,38.24
2022-07-28T22:09:56.725Z,38.18
2022-07-28T22:13:00.115Z,37.71
2022-07-28T22:16:01.716Z,37.90
2022-07-28T22:19:04.060Z,37.74
2022-07-28T22:22:05.527Z,37.73
2022-07-28T22:25:07.701Z,37.60
2022-07-28T22:28:09.148Z,37.65
2022-07-28T22:31:17.025Z,37.76
2022-07-28T22:34:18.850Z,37.75
2022-07-28T22:37:20.601Z,37.48
2022-07-28T22:40:22.715Z,37.86
2022-07-28T22:43:24.214Z,38.01
2022-07-28T22:46:25.775Z,37.76
2022-07-28T22:49:27.276Z,38.24
2022-07-28T22:52:29.897Z,38.51
2022-07-28T22:55:31.399Z,38.25
2022-07-28T22:58:32.851Z,38.44
2022-07-28T23:01:35.265Z,38.63
2022-07-28T23:04:36.887Z,38.86
2022-07-28T23:07:53.162Z,39.10
2022-07-28T23:10:59.022Z,39.60
2022-07-28T23:14:00.510Z,40.51
2022-07-28T23:17:02.376Z,40.73
2022-07-28T23:20:05.025Z,41.24
2022-07-28T23:23:06.988Z,41.97
2022-07-28T23:26:08.431Z,42.32
2022-07-28T23:29:09.846Z,42.68
2022-07-28T23:32:16.654Z,42.96
2022-07-28T23:35:19.063Z,43.31
2022-07-28T23:38:20.492Z,43.73
2022-07-28T23:41:21.993Z,44.72
2022-07-28T23:44:23.483Z,45.20
2022-07-28T23:47:24.923Z,45.63
2022-07-28T23:50:27.065Z,45.31
2022-07-28T23:53:28.572Z,46.04
2022-07-28T23:56:30.362Z,46.41
2022-07-28T23:59:31.868Z,47.41
